createdAt,value
2023-05-01T00:25:01.084Z,1.9
2023-05-01T00:30:00.957Z,2.8
2023-05-01T00:35:01.031Z,3.0
2023-05-01T00:45:01.129Z,3.0
2023-05-01T00:50:01.075Z,1.4
2023-05-01T00:55:01.111Z,0.5
2023-05-01T01:20:01.216Z,0.2
2023-05-01T01:30:01.043Z,0.2
2023-05-01T01:40:01.118Z,0.1
2023-05-01T04:40:01.123Z,0.3
2023-05-01T05:10:06.636Z,0.1
2023-05-01T05:15:01.666Z,0.9
2023-05-01T05:20:02.561Z,4.5
2023-05-01T05:25:01.597Z,4.6
2023-05-01T05:50:01.605Z,3.6
2023-05-01T05:55:01.642Z,6.5
2023-05-01T06:00:06.525Z,8.2
2023-05-01T06:05:01.680Z,10.1
2023-05-01T06:10:01.557Z,13.2
2023-05-01T06:15:01.572Z,9.8
2023-05-01T06:20:01.500Z,7.4
2023-05-01T06:25:01.626Z,6.0
2023-05-01T06:30:01.566Z,9.0
2023-05-01T06:35:06.618Z,8.1
2023-05-01T06:40:02.554Z,9.9
2023-05-01T06:45:01.548Z,10.0
2023-05-01T06:50:05.485Z,12.1
2023-05-01T06:55:01.554Z,8.1
2023-05-01T07:00:01.404Z,6.5
2023-05-01T07:05:01.548Z,5.0
2023-05-01T07:10:01.549Z,4.7
2023-05-01T07:15:01.590Z,2.3
2023-05-01T07:20:01.396Z,3.5
2023-05-01T07:35:01.448Z,16.7
2023-05-01T07:40:01.450Z,16.9
2023-05-01T07:45:02.033Z,19.6
2023-05-01T07:50:01.467Z,24.3
2023-05-01T07:55:01.560Z,25.8
2023-05-01T08:00:01.365Z,30.4
2023-05-01T08:05:01.721Z,38.4
2023-05-01T08:10:02.133Z,44.8
2023-05-01T08:20:01.384Z,49.1
2023-05-01T08:25:02.512Z,50.4
2023-05-01T08:35:01.543Z,56.3
2023-05-01T08:40:01.414Z,57.7
2023-05-01T08:50:01.481Z,55.8
2023-05-01T08:55:01.531Z,59.1
2023-05-01T09:00:01.460Z,59.3
2023-05-01T09:05:01.528Z,59.6
2023-05-01T09:10:01.442Z,57.0
2023-05-01T09:15:01.444Z,62.7
2023-05-01T09:20:01.318Z,59.7
2023-05-01T09:25:01.516Z,61.4
2023-05-01T09:35:02.490Z,72.9
2023-05-01T09:55:06.137Z,81.4
2023-05-01T10:00:01.048Z,84.3
2023-05-01T10:05:01.188Z,81.3
2023-05-01T10:10:02.523Z,80.0
2023-05-01T10:25:01.707Z,90.4
2023-05-01T10:30:01.442Z,93.2
2023-05-01T10:35:01.569Z,93.5
2023-05-01T10:40:01.524Z,94.3
2023-05-01T10:55:01.082Z,94.2
2023-05-01T11:15:01.481Z,96.8
2023-05-01T11:20:01.262Z,95.9
2023-05-01T11:25:01.377Z,96.8
2023-05-01T11:30:01.281Z,94.8
2023-05-01T11:35:01.357Z,93.6
2023-05-01T11:40:01.188Z,91.9
2023-05-01T11:50:01.265Z,91.3
2023-05-01T11:55:02.311Z,92.0
2023-05-01T12:00:01.387Z,92.3
2023-05-01T12:05:06.487Z,94.1
2023-05-01T12:10:01.574Z,95.4
2023-05-01T12:15:01.366Z,95.9
2023-05-01T12:25:01.336Z,95.7
2023-05-01T12:30:01.292Z,98.8
2023-05-01T12:35:01.959Z,98.1
2023-05-01T12:55:02.528Z,95.8
2023-05-01T13:00:01.450Z,101.7
2023-05-01T13:05:01.294Z,105.7
2023-05-01T13:10:02.014Z,104.9
2023-05-01T13:15:01.536Z,105.6
2023-05-01T13:20:02.056Z,107.9
2023-05-01T13:25:01.292Z,111.4
2023-05-01T13:30:01.696Z,113.4
2023-05-01T13:35:01.226Z,123.6
2023-05-01T13:40:01.613Z,131.7
2023-05-01T13:50:01.643Z,147.7
2023-05-01T13:55:05.814Z,154.8
2023-05-01T14:00:01.195Z,152.2
2023-05-01T14:10:01.313Z,148.4
2023-05-01T14:15:02.497Z,140.0
2023-05-01T14:20:01.136Z,132.6
2023-05-01T14:25:01.794Z,127.3
2023-05-01T14:30:01.163Z,115.6
2023-05-01T14:35:01.359Z,108.9
2023-05-01T14:40:01.145Z,103.0
2023-05-01T14:45:01.388Z,95.7
2023-05-01T14:50:01.342Z,90.4
2023-05-01T14:55:01.529Z,89.6
2023-05-01T15:00:01.623Z,88.2
2023-05-01T15:05:01.506Z,90.0
2023-05-01T15:10:01.339Z,89.2
2023-05-01T15:15:01.422Z,90.6
2023-05-01T15:20:01.318Z,94.2
2023-05-01T15:25:01.789Z,94.8
2023-05-01T15:30:01.363Z,97.7
2023-05-01T15:35:02.338Z,106.2
2023-05-01T15:40:01.388Z,105.5
2023-05-01T15:45:01.673Z,104.4
2023-05-01T15:50:01.918Z,113.8
2023-05-01T15:55:01.363Z,118.8
2023-05-01T16:00:02.064Z,114.5
2023-05-01T16:05:01.196Z,127.7
2023-05-01T16:10:06.857Z,131.1
2023-05-01T16:20:02.064Z,115.5
2023-05-01T16:25:01.275Z,121.3
2023-05-01T16:30:01.745Z,126.6
2023-05-01T16:35:01.392Z,135.6
2023-05-01T16:40:02.148Z,147.9
2023-05-01T16:45:01.293Z,161.8
2023-05-01T16:50:01.752Z,168.4
2023-05-01T16:55:01.222Z,159.4
2023-05-01T17:00:02.141Z,151.1
2023-05-01T17:05:01.347Z,144.2
2023-05-01T17:10:06.596Z,128.2
2023-05-01T17:15:01.488Z,114.6
2023-05-01T17:20:02.126Z,103.2
2023-05-01T17:25:01.213Z,97.2
2023-05-01T17:30:01.935Z,85.6
2023-05-01T17:35:06.705Z,83.7
2023-05-01T17:40:02.298Z,79.7
2023-05-01T17:45:01.288Z,79.5
2023-05-01T17:55:01.352Z,76.7
2023-05-01T18:00:03.318Z,76.3
2023-05-01T18:05:01.941Z,75.6
2023-05-01T18:10:02.037Z,74.4
2023-05-01T18:15:01.263Z,74.0
2023-05-01T18:20:02.108Z,72.8
2023-05-01T18:25:01.255Z,70.7
2023-05-01T18:30:02.919Z,68.5
2023-05-01T18:35:01.289Z,65.9
2023-05-01T18:40:01.805Z,63.8
2023-05-01T18:50:01.805Z,63.1
2023-05-01T19:00:01.951Z,64.1
2023-05-01T19:05:01.384Z,62.8
2023-05-01T19:10:02.256Z,62.8
2023-05-01T19:15:01.223Z,62.6
2023-05-01T19:20:01.690Z,62.4
2023-05-01T19:25:01.323Z,63.2
2023-05-01T19:30:02.298Z,65.3
2023-05-01T19:35:01.921Z,65.7
2023-05-01T19:45:01.227Z,65.4
2023-05-01T19:50:02.176Z,61.6
2023-05-01T19:55:01.327Z,61.3
2023-05-01T20:00:02.022Z,61.2
2023-05-01T20:05:01.288Z,61.6
2023-05-01T20:10:01.726Z,63.0
2023-05-01T20:20:01.557Z,68.7
2023-05-01T20:25:01.327Z,69.2
2023-05-01T20:30:01.758Z,70.8
2023-05-01T20:35:01.234Z,72.4
2023-05-01T20:40:06.603Z,73.6
2023-05-01T20:45:01.289Z,73.7
2023-05-01T20:50:01.690Z,74.6
2023-05-01T20:55:01.262Z,74.7
2023-05-01T21:00:06.786Z,75.1
2023-05-01T21:05:06.359Z,74.4
2023-05-01T21:10:01.572Z,76.3
2023-05-01T21:15:01.296Z,76.2
2023-05-01T21:20:01.937Z,75.0
2023-05-01T21:25:01.415Z,75.2
2023-05-01T21:30:01.790Z,76.3
2023-05-01T21:35:01.402Z,77.7
2023-05-01T21:40:01.897Z,77.7
2023-05-01T21:45:01.361Z,82.8
2023-05-01T21:50:01.803Z,80.2
2023-05-01T21:55:01.264Z,76.5
2023-05-01T22:00:01.694Z,71.2
2023-05-01T22:05:01.276Z,69.9
2023-05-01T22:10:01.923Z,63.8
2023-05-01T22:15:01.367Z,63.4
2023-05-01T22:20:01.769Z,63.2
2023-05-01T22:25:01.359Z,64.2
2023-05-01T22:30:02.294Z,64.0
2023-05-01T22:35:01.278Z,63.7
2023-05-01T22:40:01.908Z,63.9
2023-05-01T22:45:01.270Z,64.2
2023-05-01T22:50:02.220Z,67.9
2023-05-01T22:55:01.350Z,71.7
2023-05-01T23:00:02.066Z,80.4
2023-05-01T23:05:01.318Z,83.2
2023-05-01T23:10:01.735Z,84.0
2023-05-01T23:15:01.410Z,82.5
2023-05-01T23:20:02.270Z,78.6
2023-05-01T23:25:02.322Z,70.3
2023-05-01T23:30:01.801Z,70.9
2023-05-01T23:35:01.376Z,75.2
2023-05-01T23:45:01.277Z,81.4
2023-05-01T23:50:02.015Z,86.3
2023-05-01T23:55:01.236Z,88.2
